createdAt,value
2018-05-16T00:01:43.631Z,99661.20
2018-05-16T00:04:22.256Z,99659.47
2018-05-16T00:06:51.320Z,99663.55
2018-05-16T00:09:20.544Z,99661.68
2018-05-16T00:11:50.412Z,99664.03
2018-05-16T00:14:20.231Z,99670.38
2018-05-16T00:16:49.402Z,99667.92
2018-05-16T00:19:24.429Z,99672.09
2018-05-16T00:21:56.470Z,99665.84
2018-05-16T00:24:25.499Z,99672.38
2018-05-16T00:26:54.956Z,99668.89
2018-05-16T00:29:24.734Z,99669.00
2018-05-16T00:31:53.760Z,99675.03
2018-05-16T00:34:22.854Z,99674.36
2018-05-16T00:36:53.721Z,99677.23
2018-05-16T00:39:24.548Z,99677.38
2018-05-16T00:41:55.637Z,99679.34
2018-05-16T00:44:26.511Z,99676.73
2018-05-16T00:46:57.604Z,99680.63
2018-05-16T00:49:27.697Z,99682.55
2018-05-16T00:51:58.639Z,99672.48
2018-05-16T00:54:31.105Z,99674.45
2018-05-16T00:57:00.572Z,99671.57
2018-05-16T00:59:31.099Z,99671.84
2018-05-16T01:02:02.967Z,99676.37
2018-05-16T01:04:35.459Z,99674.40
2018-05-16T01:07:11.154Z,99673.56
2018-05-16T01:09:41.176Z,99674.99
2018-05-16T01:12:10.295Z,99662.78
2018-05-16T01:14:39.664Z,99665.94
2018-05-16T01:17:09.723Z,99664.28
2018-05-16T01:19:40.659Z,99654.44
2018-05-16T01:22:10.677Z,99670.00
2018-05-16T01:24:41.290Z,99663.95
2018-05-16T01:27:12.114Z,99662.73
2018-05-16T01:29:43.200Z,99669.86
2018-05-16T01:32:13.174Z,99672.33
2018-05-16T01:34:43.961Z,99669.30
2018-05-16T01:37:13.081Z,99669.36
2018-05-16T01:39:44.842Z,99673.20
2018-05-16T01:42:22.627Z,99668.68
2018-05-16T01:44:51.773Z,99664.83
2018-05-16T01:47:22.839Z,99655.83
2018-05-16T01:49:52.697Z,99658.61
2018-05-16T01:52:21.741Z,99667.45
2018-05-16T01:54:50.792Z,99662.22
2018-05-16T01:57:19.884Z,99662.54
2018-05-16T01:59:49.116Z,99660.20
2018-05-16T02:02:20.569Z,99654.13
2018-05-16T02:04:51.703Z,99649.86
2018-05-16T02:07:22.568Z,99650.41
2018-05-16T02:09:51.802Z,99650.72
2018-05-16T02:12:23.155Z,99655.14
2018-05-16T02:14:55.079Z,99651.56
2018-05-16T02:17:28.660Z,99657.92
2018-05-16T02:19:59.297Z,99655.77
2018-05-16T02:22:34.408Z,99652.20
2018-05-16T02:25:03.890Z,99647.89
2018-05-16T02:27:34.688Z,99655.45
2018-05-16T02:30:04.058Z,99655.36
2018-05-16T02:32:33.144Z,99655.88
2018-05-16T02:35:03.818Z,99651.46
2018-05-16T02:37:35.426Z,99652.38
2018-05-16T02:40:16.482Z,99634.04
2018-05-16T02:42:45.570Z,99632.28
2018-05-16T02:45:15.064Z,99620.50
2018-05-16T02:47:44.845Z,99617.09
2018-05-16T02:50:13.895Z,99618.95
2018-05-16T02:52:43.500Z,99624.77
2018-05-16T02:55:13.285Z,99628.77
2018-05-16T02:57:43.989Z,99638.09
2018-05-16T03:05:13.221Z,99623.02
2018-05-16T03:07:45.127Z,99624.55
2018-05-16T03:10:16.014Z,99639.70
2018-05-16T03:12:47.067Z,99633.03
2018-05-16T03:15:16.804Z,99637.73
2018-05-16T03:17:53.995Z,99646.45
2018-05-16T03:20:22.845Z,99644.31
2018-05-16T03:22:53.756Z,99642.47
2018-05-16T03:25:22.859Z,99643.30
2018-05-16T03:27:54.673Z,99646.66
2018-05-16T03:30:25.999Z,99638.73
2018-05-16T03:32:55.167Z,99636.77
2018-05-16T03:35:26.287Z,99651.84
2018-05-16T03:37:59.717Z,99658.13
2018-05-16T03:40:31.253Z,99656.69
2018-05-16T03:43:09.969Z,99651.58
2018-05-16T03:45:39.725Z,99651.72
2018-05-16T03:48:10.121Z,99652.95
2018-05-16T03:50:39.707Z,99647.95
2018-05-16T03:53:13.596Z,99652.16
2018-05-16T03:55:43.796Z,99647.25
2018-05-16T03:58:24.934Z,99635.37
2018-05-16T04:01:05.442Z,99639.75
2018-05-16T04:03:45.448Z,99641.41
2018-05-16T04:06:14.569Z,99632.50
2018-05-16T04:08:43.586Z,99632.40
2018-05-16T04:11:18.800Z,99640.64
2018-05-16T04:13:47.866Z,99648.53
2018-05-16T04:16:17.822Z,99636.96
2018-05-16T04:18:47.185Z,99638.31
2018-05-16T04:21:16.545Z,99637.60
2018-05-16T04:23:46.005Z,99637.61
2018-05-16T04:26:15.028Z,99629.98
2018-05-16T04:28:44.222Z,99637.70
2018-05-16T04:31:14.406Z,99638.77
2018-05-16T04:33:43.555Z,99641.21
2018-05-16T04:36:13.029Z,99643.50
2018-05-16T04:38:42.463Z,99637.05
2018-05-16T04:41:11.498Z,99644.77
2018-05-16T04:43:40.492Z,99642.75
2018-05-16T04:46:09.692Z,99644.19
2018-05-16T04:48:39.163Z,99649.52
2018-05-16T04:51:08.179Z,99656.20
2018-05-16T04:53:37.663Z,99657.22
2018-05-16T04:56:06.686Z,99660.89
2018-05-16T04:58:35.689Z,99660.83
2018-05-16T05:01:05.287Z,99655.93
2018-05-16T05:03:34.931Z,99659.83
2018-05-16T05:06:04.760Z,99667.77
2018-05-16T05:08:33.819Z,99669.58
2018-05-16T05:11:02.928Z,99667.05
2018-05-16T05:13:34.711Z,99666.95
2018-05-16T05:16:03.822Z,99664.72
2018-05-16T05:18:34.864Z,99670.00
2018-05-16T05:21:05.565Z,99666.00
2018-05-16T05:23:36.648Z,99667.58
2018-05-16T05:26:07.483Z,99670.14
2018-05-16T05:28:38.499Z,99664.61
2018-05-16T05:31:09.551Z,99666.82
2018-05-16T05:33:40.640Z,99668.79
2018-05-16T05:36:11.444Z,99667.40
2018-05-16T05:38:42.061Z,99667.67
2018-05-16T05:41:13.273Z,99665.28
2018-05-16T05:43:44.486Z,99665.28
2018-05-16T05:46:16.134Z,99662.13
2018-05-16T05:48:46.916Z,99668.31
2018-05-16T05:51:17.860Z,99674.98
2018-05-16T05:53:48.657Z,99680.36
2018-05-16T05:56:19.139Z,99679.10
2018-05-16T05:58:49.883Z,99682.27
2018-05-16T06:01:20.647Z,99689.24
2018-05-16T06:03:51.565Z,99678.41
2018-05-16T06:06:22.502Z,99681.77
2018-05-16T06:08:53.961Z,99679.08
2018-05-16T06:11:24.638Z,99677.89
2018-05-16T06:13:55.567Z,99681.05
2018-05-16T06:16:26.514Z,99678.03
2018-05-16T06:18:57.677Z,99683.79
2018-05-16T06:21:28.525Z,99665.98
2018-05-16T06:23:59.591Z,99681.23
2018-05-16T06:26:30.495Z,99685.48
2018-05-16T06:29:01.549Z,99682.14
2018-05-16T06:31:33.096Z,99686.36
2018-05-16T06:34:03.805Z,99683.76
2018-05-16T06:36:34.548Z,99689.83
2018-05-16T06:39:05.098Z,99691.55
2018-05-16T06:41:36.388Z,99696.83
2018-05-16T06:44:07.571Z,99699.56
2018-05-16T06:46:41.494Z,99699.95
2018-05-16T06:49:10.612Z,99700.52
2018-05-16T06:51:41.193Z,99708.28
2018-05-16T06:54:11.982Z,99707.19
2018-05-16T06:56:42.715Z,99707.30
2018-05-16T06:59:13.517Z,99708.14
2018-05-16T07:01:44.502Z,99701.25
2018-05-16T07:04:15.618Z,99709.47
2018-05-16T07:06:46.435Z,99712.42
2018-05-16T07:09:17.227Z,99724.26
2018-05-16T07:11:47.926Z,99720.00
2018-05-16T07:14:18.569Z,99720.00
2018-05-16T07:16:49.511Z,99723.88
2018-05-16T07:19:20.535Z,99717.16
2018-05-16T07:21:51.576Z,99712.77
2018-05-16T07:24:23.279Z,99712.55
2018-05-16T07:26:53.936Z,99718.45
2018-05-16T07:29:24.545Z,99717.31
2018-05-16T07:31:55.132Z,99719.52
2018-05-16T07:34:25.899Z,99716.84
2018-05-16T07:36:56.606Z,99716.55
2018-05-16T07:39:27.565Z,99717.44
2018-05-16T07:41:58.515Z,99715.59
2018-05-16T07:44:29.503Z,99715.27
2018-05-16T07:47:00.611Z,99712.81
2018-05-16T07:49:31.859Z,99709.72
2018-05-16T07:52:02.702Z,99708.92
2018-05-16T07:54:33.634Z,99703.37
2018-05-16T07:57:04.156Z,99712.77
2018-05-16T07:59:34.911Z,99708.87
2018-05-16T08:02:05.218Z,99710.19
2018-05-16T08:07:27.349Z,99706.05
2018-05-16T08:09:56.381Z,99711.57
2018-05-16T08:12:25.564Z,99711.10
2018-05-16T08:14:54.991Z,99700.73
2018-05-16T08:17:23.974Z,99706.16
2018-05-16T08:19:54.706Z,99700.38
2018-05-16T08:22:23.747Z,99694.53
2018-05-16T08:24:52.760Z,99689.36
2018-05-16T08:27:21.909Z,99681.97
2018-05-16T08:29:50.933Z,99685.28
2018-05-16T08:32:20.043Z,99692.66
2018-05-16T08:34:49.247Z,99684.87
2018-05-16T08:37:20.128Z,99700.83
2018-05-16T08:39:50.785Z,99691.84
2018-05-16T08:42:20.869Z,99690.08
2018-05-16T08:44:49.826Z,99690.25
2018-05-16T08:47:20.825Z,99688.42
2018-05-16T08:49:51.811Z,99690.19
2018-05-16T08:52:22.879Z,99684.23
2018-05-16T08:54:54.501Z,99688.91
2018-05-16T08:57:25.843Z,99687.40
2018-05-16T08:59:56.565Z,99693.68
2018-05-16T09:02:27.480Z,99684.23
2018-05-16T09:04:58.441Z,99686.80
2018-05-16T09:07:29.567Z,99691.83
2018-05-16T09:10:00.453Z,99691.01
2018-05-16T09:12:32.107Z,99690.06
2018-05-16T09:15:02.906Z,99694.50
2018-05-16T09:17:33.631Z,99700.28
2018-05-16T09:20:04.266Z,99693.14
2018-05-16T09:22:35.034Z,99703.22
2018-05-16T09:25:06.180Z,99697.16
2018-05-16T09:27:37.389Z,99695.91
2018-05-16T09:30:08.458Z,99695.30
2018-05-16T09:32:39.468Z,99685.50
2018-05-16T09:35:10.175Z,99689.50
2018-05-16T09:37:41.008Z,99695.69
2018-05-16T09:40:10.851Z,99681.58
2018-05-16T09:42:41.617Z,99690.59
2018-05-16T09:45:12.535Z,99692.84
2018-05-16T09:47:43.615Z,99683.64
2018-05-16T09:50:14.145Z,99695.16
2018-05-16T09:52:45.033Z,99688.25
2018-05-16T09:55:15.577Z,99694.29
2018-05-16T09:57:46.602Z,99693.27
2018-05-16T10:00:17.382Z,99696.41
2018-05-16T10:02:48.613Z,99696.49
2018-05-16T10:05:19.458Z,99698.80
2018-05-16T10:07:50.545Z,99702.42
2018-05-16T10:10:21.545Z,99693.37
2018-05-16T10:12:52.545Z,99689.38
2018-05-16T10:15:23.498Z,99687.57
2018-05-16T10:17:54.495Z,99690.77
2018-05-16T10:20:26.428Z,99676.15
2018-05-16T10:22:57.142Z,99679.75
2018-05-16T10:25:27.872Z,99674.45
2018-05-16T10:27:58.634Z,99676.77
2018-05-16T10:30:29.606Z,99673.66
2018-05-16T10:33:01.188Z,99681.63
2018-05-16T10:35:32.856Z,99681.27
2018-05-16T10:38:01.994Z,99682.22
2018-05-16T10:40:32.741Z,99685.66
2018-05-16T10:43:03.688Z,99684.52
2018-05-16T10:45:34.514Z,99689.13
2018-05-16T10:48:06.037Z,99687.45
2018-05-16T10:50:36.212Z,99678.73
2018-05-16T10:53:07.088Z,99686.52
2018-05-16T10:55:38.149Z,99685.30
2018-05-16T10:58:09.550Z,99690.77
2018-05-16T11:00:40.067Z,99691.77
2018-05-16T11:03:11.816Z,99692.16
2018-05-16T11:05:42.279Z,99688.78
2018-05-16T11:08:13.013Z,99684.79
2018-05-16T11:10:43.529Z,99688.31
2018-05-16T11:13:15.106Z,99682.55
2018-05-16T11:15:45.867Z,99683.76
2018-05-16T11:18:16.698Z,99678.67
2018-05-16T11:20:48.475Z,99680.89
2018-05-16T11:23:18.233Z,99686.34
2018-05-16T11:25:48.896Z,99688.66
2018-05-16T11:28:19.625Z,99680.75
2018-05-16T11:30:50.519Z,99674.80
2018-05-16T11:33:23.792Z,99684.04
2018-05-16T11:35:52.987Z,99674.30
2018-05-16T11:38:22.964Z,99662.82
2018-05-16T11:40:52.754Z,99660.33
2018-05-16T11:43:23.598Z,99664.82
2018-05-16T11:45:54.401Z,99671.47
2018-05-16T11:48:25.459Z,99672.53
2018-05-16T11:50:56.004Z,99665.08
2018-05-16T11:53:27.694Z,99670.20
2018-05-16T11:55:59.401Z,99660.90
2018-05-16T11:58:30.467Z,99672.34
2018-05-16T12:01:00.097Z,99669.16
2018-05-16T12:03:30.914Z,99664.33
2018-05-16T12:06:01.513Z,99664.39
2018-05-16T12:08:32.570Z,99656.33
2018-05-16T12:11:03.394Z,99658.73
2018-05-16T12:13:34.475Z,99660.16
2018-05-16T12:16:05.543Z,99654.92
2018-05-16T12:18:36.493Z,99659.08
2018-05-16T12:21:07.202Z,99656.03
2018-05-16T12:23:37.927Z,99655.64
2018-05-16T12:26:08.469Z,99658.27
2018-05-16T12:28:40.352Z,99662.59
2018-05-16T12:31:11.094Z,99649.38
2018-05-16T12:33:41.752Z,99664.52
2018-05-16T12:36:12.510Z,99662.37
2018-05-16T12:38:43.677Z,99670.67
2018-05-16T12:41:14.239Z,99670.20
2018-05-16T12:43:44.987Z,99667.81
2018-05-16T12:46:15.570Z,99670.09
2018-05-16T12:48:46.458Z,99669.84
2018-05-16T12:51:18.311Z,99672.48
2018-05-16T12:53:49.111Z,99661.55
2018-05-16T12:56:19.864Z,99660.02
2018-05-16T12:58:50.662Z,99649.63
2018-05-16T13:01:21.147Z,99660.70
2018-05-16T13:03:51.900Z,99649.91
2018-05-16T13:06:24.606Z,99650.22
2018-05-16T13:08:54.326Z,99649.65
2018-05-16T13:11:25.030Z,99652.19
2018-05-16T13:13:55.815Z,99644.52
2018-05-16T13:16:26.734Z,99646.84
2018-05-16T13:18:57.474Z,99649.66
2018-05-16T13:21:28.072Z,99644.49
2018-05-16T13:23:58.957Z,99645.00
2018-05-16T13:26:29.483Z,99638.48
2018-05-16T13:29:00.564Z,99638.11
2018-05-16T13:31:31.309Z,99633.12
2018-05-16T13:34:02.060Z,99638.41
2018-05-16T13:36:32.819Z,99636.20
2018-05-16T13:39:03.431Z,99633.19
2018-05-16T13:41:34.391Z,99630.39
2018-05-16T13:44:05.769Z,99633.50
2018-05-16T13:46:36.509Z,99629.80
2018-05-16T13:49:07.620Z,99628.37
2018-05-16T13:51:38.494Z,99624.75
2018-05-16T13:54:09.494Z,99625.50
2018-05-16T13:56:40.568Z,99626.01
2018-05-16T13:59:11.681Z,99617.84
2018-05-16T14:01:42.699Z,99616.38
2018-05-16T14:04:13.740Z,99625.72
2018-05-16T14:06:44.557Z,99625.81
2018-05-16T14:09:15.538Z,99624.37
2018-05-16T14:11:46.007Z,99628.04
2018-05-16T14:14:16.623Z,99619.36
2018-05-16T14:16:47.775Z,99619.78
2018-05-16T14:19:18.532Z,99623.75
2018-05-16T14:21:49.380Z,99626.09
2018-05-16T14:24:20.447Z,99622.05
2018-05-16T14:26:51.129Z,99626.00
2018-05-16T14:29:22.222Z,99621.77
2018-05-16T14:31:53.330Z,99620.93
2018-05-16T14:34:24.331Z,99622.11
2018-05-16T14:36:56.181Z,99619.16
2018-05-16T14:39:26.885Z,99624.23
2018-05-16T14:41:57.539Z,99619.50
2018-05-16T14:44:28.710Z,99615.44
2018-05-16T14:46:59.496Z,99622.73
2018-05-16T14:49:30.696Z,99621.75
2018-05-16T14:52:01.539Z,99623.61
2018-05-16T14:54:32.587Z,99622.95
2018-05-16T14:57:03.529Z,99617.30
2018-05-16T14:59:34.514Z,99615.38
2018-05-16T15:02:05.461Z,99604.33
2018-05-16T15:04:36.423Z,99614.11
2018-05-16T15:07:07.127Z,99612.98
2018-05-16T15:09:38.242Z,99614.72
2018-05-16T15:12:09.883Z,99608.17
2018-05-16T15:14:40.701Z,99607.11
2018-05-16T15:17:11.705Z,99607.27
2018-05-16T15:19:42.966Z,99603.67
2018-05-16T15:22:14.252Z,99608.36
2018-05-16T15:24:44.467Z,99609.68
2018-05-16T15:27:15.430Z,99609.74
2018-05-16T15:29:47.776Z,99602.48
2018-05-16T15:32:20.118Z,99603.79
2018-05-16T15:34:49.326Z,99601.79
2018-05-16T15:37:18.419Z,99596.65
2018-05-16T15:39:49.139Z,99597.58
2018-05-16T15:42:19.770Z,99590.96
2018-05-16T15:44:50.596Z,99593.59
2018-05-16T15:47:22.457Z,99592.84
2018-05-16T15:49:53.462Z,99599.14
2018-05-16T15:52:26.601Z,99596.02
2018-05-16T15:54:58.344Z,99599.14
2018-05-16T15:57:27.598Z,99588.93
2018-05-16T15:59:56.708Z,99584.52
2018-05-16T16:02:25.751Z,99579.38
2018-05-16T16:04:57.401Z,99579.67
2018-05-16T16:07:28.104Z,99569.52
2018-05-16T16:09:59.051Z,99571.34
2018-05-16T16:12:30.482Z,99572.94
2018-05-16T16:15:01.227Z,99568.92
2018-05-16T16:17:32.691Z,99568.11
2018-05-16T16:20:02.958Z,99560.53
2018-05-16T16:22:35.811Z,99563.84
2018-05-16T16:25:05.006Z,99563.22
2018-05-16T16:27:35.114Z,99559.16
2018-05-16T16:30:05.699Z,99555.97
2018-05-16T16:32:36.629Z,99559.23
2018-05-16T16:35:07.619Z,99559.95
2018-05-16T16:37:39.304Z,99555.97
2018-05-16T16:40:10.335Z,99554.80
2018-05-16T16:42:40.740Z,99557.02
2018-05-16T16:45:11.563Z,99553.13
2018-05-16T16:47:42.545Z,99552.05
2018-05-16T16:50:13.903Z,99559.50
2018-05-16T16:52:44.622Z,99556.48
2018-05-16T16:55:15.382Z,99557.30
2018-05-16T16:57:46.383Z,99555.77
2018-05-16T17:00:18.460Z,99557.85
2018-05-16T17:02:47.438Z,99555.20
2018-05-16T17:05:19.182Z,99556.38
2018-05-16T17:07:58.129Z,99560.60
2018-05-16T17:10:27.443Z,99557.59
2018-05-16T17:12:56.912Z,99558.58
2018-05-16T17:15:26.830Z,99565.80
2018-05-16T17:17:55.955Z,99564.48
2018-05-16T17:20:25.570Z,99570.52
2018-05-16T17:22:57.072Z,99564.64
2018-05-16T17:25:26.813Z,99568.19
2018-05-16T17:27:57.896Z,99562.53
2018-05-16T17:30:28.648Z,99568.23
2018-05-16T17:32:58.640Z,99570.86
2018-05-16T17:35:29.121Z,99575.23
2018-05-16T17:38:00.018Z,99571.59
2018-05-16T17:40:30.752Z,99564.36
2018-05-16T17:43:01.925Z,99567.22
2018-05-16T17:45:36.779Z,99574.86
2018-05-16T17:48:06.396Z,99570.85
2018-05-16T17:50:37.188Z,99574.67
2018-05-16T17:53:07.963Z,99578.00
2018-05-16T17:55:38.778Z,99572.58
2018-05-16T17:58:09.595Z,99570.16
2018-05-16T18:00:41.181Z,99570.41
2018-05-16T18:03:10.334Z,99580.27
2018-05-16T18:05:41.113Z,99582.99
2018-05-16T18:08:12.308Z,99582.27
2018-05-16T18:10:43.015Z,99587.53
2018-05-16T18:16:54.366Z,99587.79
2018-05-16T18:19:23.948Z,99592.73
2018-05-16T18:21:52.978Z,99598.14
2018-05-16T18:24:22.296Z,99600.95
2018-05-16T18:26:51.673Z,99598.92
2018-05-16T18:29:20.685Z,99606.77
2018-05-16T18:31:49.687Z,99611.03
2018-05-16T18:34:18.748Z,99613.37
2018-05-16T18:36:47.950Z,99609.27
2018-05-16T18:39:17.515Z,99606.91
2018-05-16T18:41:46.686Z,99607.74
2018-05-16T18:44:15.922Z,99615.08
2018-05-16T18:46:45.435Z,99615.98
2018-05-16T18:49:14.681Z,99615.57
2018-05-16T18:51:44.682Z,99613.31
2018-05-16T18:54:13.935Z,99615.51
2018-05-16T18:56:42.930Z,99610.13
2018-05-16T18:59:12.280Z,99606.61
2018-05-16T19:01:41.475Z,99611.34
2018-05-16T19:04:10.532Z,99609.10
2018-05-16T19:06:39.516Z,99617.81
2018-05-16T19:09:08.795Z,99618.98
2018-05-16T19:11:38.635Z,99634.13
2018-05-16T19:14:07.800Z,99628.05
2018-05-16T19:16:36.901Z,99630.20
2018-05-16T19:19:07.890Z,99638.22
2018-05-16T19:21:37.395Z,99631.55
2018-05-16T19:24:06.427Z,99634.00
2018-05-16T19:26:35.510Z,99630.36
2018-05-16T19:29:04.557Z,99633.11
2018-05-16T19:31:33.841Z,99634.25
2018-05-16T19:34:03.834Z,99634.87
2018-05-16T19:36:33.150Z,99636.50
2018-05-16T19:39:03.222Z,99637.78
2018-05-16T19:41:32.545Z,99633.21
2018-05-16T19:44:01.917Z,99634.10
2018-05-16T19:46:31.220Z,99635.50
2018-05-16T19:49:00.702Z,99635.72
2018-05-16T19:51:29.772Z,99632.94
2018-05-16T19:53:58.920Z,99627.67
2018-05-16T19:56:27.909Z,99634.67
2018-05-16T19:58:57.392Z,99630.85
2018-05-16T20:01:28.095Z,99640.09
2018-05-16T20:03:57.110Z,99633.58
2018-05-16T20:06:26.608Z,99637.06
2018-05-16T20:08:57.429Z,99638.50
2018-05-16T20:11:26.401Z,99632.27
2018-05-16T20:13:55.376Z,99635.05
2018-05-16T20:16:29.028Z,99630.30
2018-05-16T20:19:01.443Z,99629.28
2018-05-16T20:21:32.684Z,99624.23
2018-05-16T20:24:01.790Z,99624.33
2018-05-16T20:26:30.803Z,99626.22
2018-05-16T20:29:01.556Z,99616.56
2018-05-16T20:31:33.222Z,99616.40
2018-05-16T20:34:04.063Z,99620.41
2018-05-16T20:36:34.791Z,99612.58
2018-05-16T20:39:07.728Z,99614.52
2018-05-16T20:41:36.842Z,99605.77
2018-05-16T20:44:07.574Z,99607.27
2018-05-16T20:46:38.502Z,99604.13
2018-05-16T20:49:10.055Z,99606.52
2018-05-16T20:51:40.547Z,99612.09
2018-05-16T20:54:13.164Z,99615.20
2018-05-16T20:56:42.857Z,99604.52
2018-05-16T20:59:13.914Z,99603.59
2018-05-16T21:01:43.878Z,99602.23
2018-05-16T21:04:14.640Z,99592.91
2018-05-16T21:06:45.390Z,99588.62
2018-05-16T21:09:16.455Z,99584.46
2018-05-16T21:11:47.491Z,99587.00
2018-05-16T21:14:17.502Z,99594.70
2018-05-16T21:16:48.136Z,99592.16
2018-05-16T21:19:18.970Z,99597.19
2018-05-16T21:21:49.766Z,99592.95
2018-05-16T21:24:21.603Z,99592.90
2018-05-16T21:26:52.557Z,99592.58
2018-05-16T21:29:23.224Z,99592.42
2018-05-16T21:31:52.211Z,99598.06
2018-05-16T21:34:23.861Z,99600.41
2018-05-16T21:36:54.702Z,99597.58
2018-05-16T21:39:25.829Z,99602.36
2018-05-16T21:41:56.772Z,99603.59
2018-05-16T21:44:27.836Z,99602.93
2018-05-16T21:46:58.690Z,99602.34
2018-05-16T21:49:29.847Z,99594.26
2018-05-16T21:52:01.199Z,99591.52
2018-05-16T21:54:32.269Z,99586.95
2018-05-16T21:57:03.607Z,99581.30
2018-05-16T21:59:34.998Z,99581.52
2018-05-16T22:02:05.462Z,99568.17
2018-05-16T22:04:34.488Z,99573.72
2018-05-16T22:07:05.173Z,99565.23
2018-05-16T22:09:36.003Z,99562.28
2018-05-16T22:12:06.851Z,99555.83
2018-05-16T22:14:38.019Z,99562.32
2018-05-16T22:17:09.277Z,99558.67
2018-05-16T22:19:40.437Z,99555.66
2018-05-16T22:22:11.499Z,99546.01
2018-05-16T22:24:42.566Z,99540.50
2018-05-16T22:27:13.559Z,99530.92
2018-05-16T22:29:45.539Z,99533.12
2018-05-16T22:32:22.387Z,99516.98
2018-05-16T22:34:56.981Z,99520.39
2018-05-16T22:37:31.442Z,99507.53
2018-05-16T22:40:06.258Z,99510.23
2018-05-16T22:42:34.740Z,99509.56
2018-05-16T22:45:04.147Z,99511.80
2018-05-16T22:47:33.989Z,99513.13
2018-05-16T22:50:03.707Z,99503.06
2018-05-16T22:52:32.691Z,99508.18
2018-05-16T22:55:01.731Z,99499.83
2018-05-16T22:57:30.682Z,99508.38
2018-05-16T22:59:59.623Z,99495.69
2018-05-16T23:02:28.838Z,99494.73
2018-05-16T23:04:58.045Z,99499.23
2018-05-16T23:07:27.008Z,99487.70
2018-05-16T23:09:57.527Z,99481.61
2018-05-16T23:12:29.422Z,99480.06
2018-05-16T23:14:58.509Z,99480.55
2018-05-16T23:17:29.010Z,99477.84
2018-05-16T23:20:00.238Z,99476.91
2018-05-16T23:22:31.687Z,99473.36
2018-05-16T23:25:02.253Z,99465.48
2018-05-16T23:27:33.407Z,99459.72
2018-05-16T23:30:04.076Z,99461.69
2018-05-16T23:32:34.252Z,99468.10
2018-05-16T23:35:04.859Z,99459.58
2018-05-16T23:37:33.821Z,99451.59
2018-05-16T23:40:03.876Z,99448.18
2018-05-16T23:42:32.970Z,99450.47
2018-05-16T23:45:01.999Z,99444.73
2018-05-16T23:47:31.085Z,99439.86
2018-05-16T23:50:00.131Z,99433.12
2018-05-16T23:52:29.224Z,99432.91
2018-05-16T23:54:58.519Z,99426.11
2018-05-16T23:57:27.558Z,99425.66
2018-05-16T23:59:56.552Z,99421.17
